Main page
METAR-TAF:

METAR-TAF

Airports :

Wiener Neustadt, Austria

Wiener Neustadt East Airport

latitude: 47-50-36N, longitude: 016-15-29E, elevation: 272 m

Current weather observation

The report was made 8 hours and 3 minutes ago, at 19:00 UTC
Wind 2 kt from the North/Northwest
Temperature
Pressure
Clear sky

METAR: LOAN 271900Z 33002KT 35KM SKC

Time: 05:03 (03:03 UTC)

Forecast

The report was made 15 hours and 38 minutes ago, at 11:25 UTC
Forecast valid from 27 at 12 UTC to 27 at 21 UTC
Wind 8 kt from the North/Northeast
Visibility 10 km or more
Scattered clouds at a height of 5000 ft

TAF: LOAN 271125Z 2712/2721 03008KT 9999 SCT050

Weather observations and forecasts of more than 4000 airports (METAR and TAF reports).

The available stations are represented by yellow and red dots on the map.

Hover mouse over dot to see the name of the station.

Then click to see weather observations and forecasts.

To change the map : click on the green buttons with a black cross to zoom in, on the green button with a dash to zoom out, or on the green arrows for adjacent maps.


METAR-TAF: